createdAt,value
2018-08-20T00:01:44.454Z,79.90
2018-08-20T00:04:14.566Z,79.70
2018-08-20T00:06:52.155Z,79.70
2018-08-20T00:09:23.911Z,80.30
2018-08-20T00:11:53.206Z,80.50
2018-08-20T00:14:22.588Z,80.00
2018-08-20T00:16:51.884Z,80.50
2018-08-20T00:19:21.202Z,80.00
2018-08-20T00:21:50.539Z,79.80
2018-08-20T00:24:19.784Z,80.10
2018-08-20T00:26:49.053Z,80.40
2018-08-20T00:29:18.323Z,80.40
2018-08-20T00:31:48.260Z,80.40
2018-08-20T00:34:17.580Z,80.20
2018-08-20T00:36:47.920Z,80.80
2018-08-20T00:39:17.443Z,80.50
2018-08-20T00:41:47.330Z,80.80
2018-08-20T00:44:17.904Z,80.70
2018-08-20T00:46:47.486Z,81.00
2018-08-20T00:49:17.543Z,81.50
2018-08-20T00:51:47.064Z,81.00
2018-08-20T00:54:16.401Z,80.40
2018-08-20T00:56:45.814Z,80.20
2018-08-20T00:59:15.272Z,81.10
2018-08-20T01:01:45.513Z,80.30
2018-08-20T01:04:14.773Z,80.60
2018-08-20T01:06:44.134Z,80.40
2018-08-20T01:09:13.495Z,80.40
2018-08-20T01:11:42.775Z,80.50
2018-08-20T01:14:12.121Z,80.60
2018-08-20T01:16:41.638Z,80.80
2018-08-20T01:19:10.900Z,80.70
2018-08-20T01:21:40.322Z,80.20
2018-08-20T01:24:09.614Z,80.40
2018-08-20T01:26:38.855Z,80.70
2018-08-20T01:29:08.558Z,80.70
2018-08-20T01:31:37.855Z,80.60
2018-08-20T01:34:07.305Z,80.00
2018-08-20T01:36:36.547Z,80.00
2018-08-20T01:39:06.620Z,80.10
2018-08-20T01:41:35.931Z,81.00
2018-08-20T01:44:05.255Z,80.10
2018-08-20T01:46:34.575Z,80.40
2018-08-20T01:49:03.853Z,80.40
2018-08-20T01:51:33.154Z,80.70
2018-08-20T01:54:02.418Z,80.00
2018-08-20T01:56:38.319Z,80.30
2018-08-20T01:59:07.578Z,80.60
2018-08-20T02:01:36.954Z,80.90
2018-08-20T02:04:06.364Z,80.80
2018-08-20T02:06:35.656Z,81.10
2018-08-20T02:09:05.778Z,81.30
2018-08-20T02:11:35.086Z,81.40
2018-08-20T02:14:04.600Z,80.80
2018-08-20T02:16:33.900Z,81.00
2018-08-20T02:19:03.230Z,81.20
2018-08-20T02:21:32.499Z,81.20
2018-08-20T02:24:01.777Z,81.10
2018-08-20T02:26:31.101Z,81.70
2018-08-20T02:29:00.435Z,81.10
2018-08-20T02:31:29.747Z,80.70
2018-08-20T02:33:59.277Z,77.80
2018-08-20T02:36:28.558Z,75.80
2018-08-20T02:38:57.869Z,72.00
2018-08-20T02:41:27.241Z,68.50
2018-08-20T02:43:56.583Z,68.50
2018-08-20T02:46:58.076Z,69.00
2018-08-20T02:49:27.346Z,68.30
2018-08-20T02:51:56.635Z,67.10
2018-08-20T02:54:25.911Z,67.20
2018-08-20T02:56:55.228Z,68.20
2018-08-20T02:59:24.640Z,66.20
2018-08-20T03:01:53.943Z,66.10
2018-08-20T03:04:23.230Z,66.30
2018-08-20T03:06:52.539Z,64.10
2018-08-20T03:09:21.863Z,63.40
2018-08-20T03:11:51.115Z,63.50
2018-08-20T03:14:20.384Z,64.60
2018-08-20T03:16:49.716Z,63.40
2018-08-20T03:19:19.020Z,63.10
2018-08-20T03:21:48.313Z,62.50
2018-08-20T03:24:17.545Z,62.40
2018-08-20T03:26:46.880Z,62.90
2018-08-20T03:29:16.126Z,63.30
2018-08-20T03:31:45.539Z,61.40
2018-08-20T03:34:14.903Z,62.10
2018-08-20T03:36:44.223Z,63.20
2018-08-20T03:39:13.631Z,61.60
2018-08-20T03:41:42.967Z,61.00
2018-08-20T03:44:12.361Z,62.80
2018-08-20T03:46:41.669Z,61.60
2018-08-20T03:49:10.980Z,61.70
2018-08-20T03:51:40.224Z,63.10
2018-08-20T03:54:09.629Z,63.00
2018-08-20T03:56:38.985Z,66.10
2018-08-20T03:59:09.714Z,63.00
2018-08-20T04:01:38.966Z,65.40
2018-08-20T04:04:08.325Z,63.10
2018-08-20T04:06:37.646Z,63.30
2018-08-20T04:09:06.975Z,64.40
2018-08-20T04:11:36.268Z,64.70
2018-08-20T04:14:05.621Z,63.50
2018-08-20T04:16:34.869Z,63.50
2018-08-20T04:19:07.174Z,64.00
2018-08-20T04:21:36.953Z,64.00
2018-08-20T04:24:06.354Z,64.30
2018-08-20T04:26:35.624Z,64.70
2018-08-20T04:29:04.931Z,65.20
2018-08-20T04:31:34.282Z,64.70
2018-08-20T04:34:04.270Z,65.20
2018-08-20T04:36:33.591Z,64.60
2018-08-20T04:39:02.985Z,63.70
2018-08-20T04:41:32.298Z,63.40
2018-08-20T04:44:01.552Z,63.80
2018-08-20T04:46:30.807Z,62.20
2018-08-20T04:49:00.293Z,62.30
2018-08-20T04:51:29.802Z,62.90
2018-08-20T04:53:58.927Z,64.20
2018-08-20T04:56:28.217Z,62.60
2018-08-20T04:58:57.565Z,61.60
2018-08-20T05:01:26.872Z,61.10
2018-08-20T05:03:56.206Z,60.00
2018-08-20T05:06:25.539Z,60.60
2018-08-20T05:08:54.777Z,59.60
2018-08-20T05:11:24.179Z,59.90
2018-08-20T05:13:53.428Z,59.40
2018-08-20T05:16:22.705Z,59.10
2018-08-20T05:18:52.102Z,59.00
2018-08-20T05:21:21.427Z,59.50
2018-08-20T05:23:50.750Z,57.70
2018-08-20T05:26:20.728Z,57.80
2018-08-20T05:28:49.996Z,58.60
2018-08-20T05:31:19.279Z,59.10
2018-08-20T05:33:48.523Z,61.30
2018-08-20T05:36:17.784Z,59.80
2018-08-20T05:38:47.104Z,59.00
2018-08-20T05:41:16.479Z,59.50
2018-08-20T05:43:45.754Z,60.80
2018-08-20T05:46:15.063Z,59.70
2018-08-20T05:48:44.362Z,61.70
2018-08-20T05:51:14.238Z,61.10
2018-08-20T05:53:43.662Z,59.80
2018-08-20T05:56:13.108Z,61.20
2018-08-20T05:58:42.507Z,61.30
2018-08-20T06:01:11.984Z,60.10
2018-08-20T06:03:41.394Z,60.50
2018-08-20T06:06:10.894Z,60.60
2018-08-20T06:08:40.200Z,60.30
2018-08-20T06:11:09.589Z,60.20
2018-08-20T06:13:38.972Z,60.50
2018-08-20T06:16:08.301Z,60.80
2018-08-20T06:18:37.678Z,62.30
2018-08-20T06:21:07.266Z,60.80
2018-08-20T06:23:36.524Z,60.60
2018-08-20T06:26:06.253Z,59.90
2018-08-20T06:28:35.620Z,59.40
2018-08-20T06:31:05.112Z,59.70
2018-08-20T06:33:34.468Z,59.50
2018-08-20T06:36:03.886Z,58.80
2018-08-20T06:38:33.211Z,58.80
2018-08-20T06:41:02.560Z,59.20
2018-08-20T06:43:31.953Z,58.90
2018-08-20T06:46:01.404Z,58.10
2018-08-20T06:48:30.753Z,58.50
2018-08-20T06:51:00.059Z,57.50
2018-08-20T06:53:29.362Z,57.70
2018-08-20T06:55:58.707Z,57.40
2018-08-20T06:58:28.006Z,57.20
2018-08-20T07:00:57.421Z,55.10
2018-08-20T07:03:26.733Z,56.00
2018-08-20T07:05:55.964Z,55.10
2018-08-20T07:08:25.406Z,53.70
2018-08-20T07:10:54.817Z,54.60
2018-08-20T07:13:37.083Z,53.90
2018-08-20T07:16:07.500Z,53.00
2018-08-20T07:18:38.250Z,54.20
2018-08-20T07:21:07.652Z,54.20
2018-08-20T07:23:37.086Z,54.50
2018-08-20T07:26:06.343Z,53.70
2018-08-20T07:28:35.707Z,52.50
2018-08-20T07:31:06.202Z,52.10
2018-08-20T07:33:35.468Z,50.60
2018-08-20T07:36:04.895Z,50.90
2018-08-20T07:38:34.209Z,49.60
2018-08-20T07:41:03.511Z,50.10
2018-08-20T07:43:32.796Z,50.60
2018-08-20T07:46:02.089Z,51.20
2018-08-20T07:48:31.499Z,49.90
2018-08-20T07:51:00.864Z,50.40
2018-08-20T07:53:30.270Z,52.40
2018-08-20T07:55:59.800Z,49.50
2018-08-20T07:58:29.063Z,49.60
2018-08-20T08:00:58.329Z,49.10
2018-08-20T08:03:32.584Z,48.30
2018-08-20T08:06:04.435Z,49.70
2018-08-20T08:08:33.818Z,50.20
2018-08-20T08:11:03.284Z,50.40
2018-08-20T08:13:33.540Z,49.70
2018-08-20T08:16:02.835Z,48.90
2018-08-20T08:18:32.148Z,48.70
2018-08-20T08:21:01.482Z,50.70
2018-08-20T08:23:30.756Z,50.50
2018-08-20T08:26:00.074Z,52.30
2018-08-20T08:28:29.480Z,52.50
2018-08-20T08:30:58.770Z,50.10
2018-08-20T08:33:28.053Z,51.00
2018-08-20T08:35:57.446Z,50.80
2018-08-20T08:38:26.739Z,50.60
2018-08-20T08:40:56.176Z,50.80
2018-08-20T08:43:25.760Z,52.20
2018-08-20T08:45:55.146Z,52.50
2018-08-20T08:48:24.494Z,50.90
2018-08-20T08:50:53.756Z,50.70
2018-08-20T08:53:23.067Z,51.90
2018-08-20T08:55:53.996Z,51.70
2018-08-20T08:58:23.439Z,49.50
2018-08-20T09:00:52.880Z,50.90
2018-08-20T09:03:22.258Z,50.90
2018-08-20T09:05:51.653Z,48.90
2018-08-20T09:08:21.143Z,50.20
2018-08-20T09:10:50.542Z,54.20
2018-08-20T09:13:19.936Z,50.60
2018-08-20T09:15:49.261Z,48.40
2018-08-20T09:18:18.767Z,48.50
2018-08-20T09:20:48.054Z,51.70
2018-08-20T09:23:17.520Z,51.40
2018-08-20T09:25:46.874Z,51.50
2018-08-20T09:28:16.233Z,50.60
2018-08-20T09:30:51.198Z,49.10
2018-08-20T09:33:20.535Z,47.10
2018-08-20T09:35:50.043Z,50.70
2018-08-20T09:38:19.478Z,47.30
2018-08-20T09:40:48.798Z,48.60
2018-08-20T09:43:18.100Z,47.80
2018-08-20T09:45:48.483Z,47.30
2018-08-20T09:48:17.800Z,47.70
2018-08-20T09:50:47.125Z,46.00
2018-08-20T09:53:16.438Z,45.00
2018-08-20T09:55:46.234Z,44.60
2018-08-20T09:58:15.631Z,45.20
2018-08-20T10:00:45.021Z,45.20
2018-08-20T10:03:14.480Z,45.10
2018-08-20T10:05:44.024Z,45.70
2018-08-20T10:08:13.333Z,45.90
2018-08-20T10:10:42.759Z,46.80
2018-08-20T10:13:12.259Z,46.50
2018-08-20T10:15:41.642Z,45.70
2018-08-20T10:18:11.102Z,44.50
2018-08-20T10:20:40.434Z,44.30
2018-08-20T10:23:09.813Z,44.00
2018-08-20T10:25:39.144Z,44.60
2018-08-20T10:28:08.619Z,44.40
2018-08-20T10:30:37.930Z,43.70
2018-08-20T10:33:07.344Z,43.30
2018-08-20T10:35:36.613Z,43.50
2018-08-20T10:38:06.519Z,42.80
2018-08-20T10:40:36.543Z,42.30
2018-08-20T10:43:06.110Z,43.90
2018-08-20T10:45:40.559Z,44.00
2018-08-20T10:48:09.920Z,44.30
2018-08-20T10:50:39.202Z,45.20
2018-08-20T10:53:08.655Z,45.50
2018-08-20T10:55:38.055Z,45.10
2018-08-20T10:58:08.711Z,45.40
2018-08-20T11:00:38.653Z,45.70
2018-08-20T11:03:08.013Z,45.90
2018-08-20T11:05:37.383Z,46.10
2018-08-20T11:08:06.829Z,46.40
2018-08-20T11:10:36.217Z,46.10
2018-08-20T11:13:06.522Z,45.60
2018-08-20T11:15:35.777Z,45.80
2018-08-20T11:18:05.512Z,45.40
2018-08-20T11:20:34.772Z,45.50
2018-08-20T11:23:04.039Z,45.50
2018-08-20T11:25:33.387Z,45.90
2018-08-20T11:28:02.751Z,46.60
2018-08-20T11:30:32.105Z,47.10
2018-08-20T11:33:02.400Z,47.30
2018-08-20T11:35:31.851Z,48.00
2018-08-20T11:38:01.175Z,48.40
2018-08-20T11:40:30.527Z,49.20
2018-08-20T11:42:59.931Z,49.30
2018-08-20T11:45:29.290Z,49.70
2018-08-20T11:47:58.665Z,50.60
2018-08-20T11:50:28.119Z,52.00
2018-08-20T11:52:57.507Z,52.60
2018-08-20T11:55:28.343Z,53.10
2018-08-20T11:57:57.678Z,53.10
2018-08-20T12:00:27.028Z,53.30
2018-08-20T12:02:56.485Z,55.80
2018-08-20T12:05:25.783Z,56.20
2018-08-20T12:07:55.080Z,54.30
2018-08-20T12:10:24.528Z,53.60
2018-08-20T12:12:53.825Z,54.20
2018-08-20T12:15:23.248Z,54.20
2018-08-20T12:17:52.585Z,54.40
2018-08-20T12:20:21.908Z,54.60
2018-08-20T12:22:51.243Z,54.20
2018-08-20T12:25:20.486Z,55.00
2018-08-20T12:27:50.476Z,54.90
2018-08-20T12:30:19.882Z,54.80
2018-08-20T12:32:49.144Z,54.70
2018-08-20T12:35:18.430Z,55.10
2018-08-20T12:37:47.685Z,55.40
2018-08-20T12:40:17.077Z,55.50
2018-08-20T12:42:46.442Z,55.90
2018-08-20T12:45:15.713Z,56.30
2018-08-20T12:47:45.116Z,56.90
2018-08-20T12:50:14.359Z,56.30
2018-08-20T12:52:43.628Z,55.50
2018-08-20T12:55:12.897Z,56.50
2018-08-20T12:57:42.225Z,56.20
2018-08-20T13:00:11.578Z,55.80
2018-08-20T13:02:40.981Z,56.80
2018-08-20T13:05:13.826Z,56.60
2018-08-20T13:07:43.067Z,57.00
2018-08-20T13:10:12.407Z,57.30
2018-08-20T13:12:41.700Z,56.70
2018-08-20T13:15:10.996Z,57.20
2018-08-20T13:17:41.636Z,57.40
2018-08-20T13:20:10.971Z,57.10
2018-08-20T13:22:40.380Z,56.70
2018-08-20T13:25:10.037Z,57.90
2018-08-20T13:27:39.331Z,57.00
2018-08-20T13:30:09.626Z,55.80
2018-08-20T13:32:40.013Z,56.70
2018-08-20T13:35:09.518Z,55.40
2018-08-20T13:37:39.731Z,54.00
2018-08-20T13:40:09.038Z,53.90
2018-08-20T13:42:41.176Z,53.40
2018-08-20T13:45:10.472Z,53.30
2018-08-20T13:47:39.803Z,53.60
2018-08-20T13:50:15.678Z,53.90
2018-08-20T13:52:46.475Z,53.80
2018-08-20T13:55:15.856Z,54.60
2018-08-20T13:57:47.418Z,54.90
2018-08-20T14:00:18.024Z,56.40
2018-08-20T14:02:47.317Z,55.40
2018-08-20T14:05:17.475Z,55.20
2018-08-20T14:07:47.619Z,55.20
2018-08-20T14:10:16.963Z,55.30
2018-08-20T14:12:46.376Z,55.70
2018-08-20T14:15:16.003Z,55.50
2018-08-20T14:17:45.375Z,55.20
2018-08-20T14:20:16.003Z,55.40
2018-08-20T14:22:45.935Z,55.90
2018-08-20T14:25:15.333Z,56.40
2018-08-20T14:27:44.601Z,55.60
2018-08-20T14:30:16.195Z,55.70
2018-08-20T14:32:45.991Z,55.90
2018-08-20T14:35:15.364Z,56.50
2018-08-20T14:37:44.723Z,55.90
2018-08-20T14:40:18.292Z,55.60
2018-08-20T14:42:47.670Z,55.50
2018-08-20T14:45:17.406Z,55.40
2018-08-20T14:47:46.914Z,55.20
2018-08-20T14:50:18.012Z,55.50
2018-08-20T14:52:47.401Z,55.50
2018-08-20T14:55:16.719Z,55.20
2018-08-20T14:57:46.013Z,55.50
2018-08-20T15:00:15.796Z,55.80
2018-08-20T15:02:45.085Z,56.00
2018-08-20T15:05:14.446Z,56.70
2018-08-20T15:07:43.742Z,57.40
2018-08-20T15:10:13.088Z,57.50
2018-08-20T15:12:42.427Z,57.80
2018-08-20T15:15:11.949Z,58.10
2018-08-20T15:17:41.230Z,58.50
2018-08-20T15:20:10.668Z,58.90
2018-08-20T15:22:40.375Z,59.30
2018-08-20T15:25:09.789Z,59.40
2018-08-20T15:27:39.151Z,60.00
2018-08-20T15:30:08.479Z,60.10
2018-08-20T15:32:37.801Z,60.40
2018-08-20T15:35:07.322Z,61.10
2018-08-20T15:37:36.752Z,61.30
2018-08-20T15:40:06.259Z,65.90
2018-08-20T15:42:35.729Z,67.30
2018-08-20T15:45:05.410Z,67.50
2018-08-20T15:47:34.729Z,70.10
2018-08-20T15:50:04.193Z,71.60
2018-08-20T15:52:33.487Z,72.90
2018-08-20T15:55:02.778Z,74.10
2018-08-20T15:57:32.124Z,73.10
2018-08-20T16:00:01.387Z,73.30
2018-08-20T16:02:30.702Z,73.60
2018-08-20T16:05:00.149Z,75.40
2018-08-20T16:07:29.490Z,76.20
2018-08-20T16:09:58.849Z,76.10
2018-08-20T16:12:28.142Z,70.60
2018-08-20T16:14:57.472Z,69.50
2018-08-20T16:17:26.810Z,70.30
2018-08-20T16:19:56.231Z,69.10
2018-08-20T16:22:26.237Z,69.10
2018-08-20T16:24:55.572Z,68.90
2018-08-20T16:27:25.434Z,69.20
2018-08-20T16:29:54.681Z,69.10
2018-08-20T16:32:24.314Z,69.10
2018-08-20T16:34:53.684Z,69.20
2018-08-20T16:37:23.097Z,71.80
2018-08-20T16:39:52.519Z,70.50
2018-08-20T16:42:21.817Z,70.00
2018-08-20T16:44:51.133Z,70.30
2018-08-20T16:47:20.475Z,70.60
2018-08-20T16:49:49.815Z,70.00
2018-08-20T16:52:19.319Z,69.60
2018-08-20T16:54:48.733Z,69.80
2018-08-20T16:57:18.006Z,70.30
2018-08-20T16:59:48.333Z,70.60
2018-08-20T17:02:22.392Z,70.10
2018-08-20T17:04:51.690Z,70.10
2018-08-20T17:07:21.005Z,70.40
2018-08-20T17:09:50.447Z,70.30
2018-08-20T17:12:19.812Z,69.80
2018-08-20T17:14:49.209Z,70.10
2018-08-20T17:17:18.548Z,70.20
2018-08-20T17:19:54.441Z,70.20
2018-08-20T17:22:23.810Z,70.30
2018-08-20T17:24:55.805Z,70.40
2018-08-20T17:27:25.248Z,70.20
2018-08-20T17:29:55.627Z,70.40
2018-08-20T17:32:25.121Z,70.60
2018-08-20T17:34:54.946Z,70.80
2018-08-20T17:37:24.226Z,70.90
2018-08-20T17:40:01.755Z,71.20
2018-08-20T17:42:32.144Z,71.30
2018-08-20T17:45:02.367Z,71.40
2018-08-20T17:47:32.551Z,71.20
2018-08-20T17:50:02.248Z,71.70
2018-08-20T17:52:36.434Z,71.70
2018-08-20T17:55:06.324Z,71.90
2018-08-20T17:57:35.619Z,71.90
2018-08-20T18:00:24.688Z,72.30
2018-08-20T18:02:54.081Z,72.40
2018-08-20T18:05:24.883Z,72.90
2018-08-20T18:07:54.893Z,73.30
2018-08-20T18:10:24.292Z,73.60
2018-08-20T18:12:54.149Z,73.90
2018-08-20T18:15:25.358Z,73.80
2018-08-20T18:17:54.814Z,73.80
2018-08-20T18:20:24.487Z,74.30
2018-08-20T18:22:53.885Z,74.50
2018-08-20T18:25:25.788Z,74.90
2018-08-20T18:27:55.215Z,75.10
2018-08-20T18:30:24.528Z,75.00
2018-08-20T18:32:53.851Z,75.30
2018-08-20T18:35:28.107Z,75.60
2018-08-20T18:37:57.494Z,75.50
2018-08-20T18:40:28.132Z,75.40
2018-08-20T18:42:58.136Z,75.20
2018-08-20T18:45:27.465Z,74.00
2018-08-20T18:47:56.808Z,73.20
2018-08-20T18:50:26.076Z,73.20
2018-08-20T18:52:55.432Z,72.70
2018-08-20T18:55:24.804Z,72.50
2018-08-20T18:57:54.095Z,72.80
2018-08-20T19:00:23.548Z,73.00
2018-08-20T19:02:58.458Z,73.30
2018-08-20T19:05:27.798Z,73.20
2018-08-20T19:07:57.051Z,73.20
2018-08-20T19:10:30.555Z,73.40
2018-08-20T19:12:59.856Z,73.50
2018-08-20T19:15:49.895Z,73.80
2018-08-20T19:18:25.244Z,74.30
2018-08-20T19:20:54.510Z,74.80
2018-08-20T19:23:23.915Z,75.10
2018-08-20T19:25:53.205Z,75.20
2018-08-20T19:28:24.491Z,75.30
2018-08-20T19:30:55.477Z,75.40
2018-08-20T19:33:29.315Z,75.70
2018-08-20T19:35:58.752Z,75.90
2018-08-20T19:38:29.216Z,76.10
2018-08-20T19:41:05.416Z,76.20
2018-08-20T19:43:38.829Z,76.50
2018-08-20T19:46:08.184Z,76.60
2018-08-20T19:48:37.595Z,76.80
2018-08-20T19:51:09.275Z,77.00
2018-08-20T19:53:38.626Z,77.40
2018-08-20T19:56:12.926Z,77.50
2018-08-20T19:58:44.370Z,77.80
2018-08-20T20:01:15.853Z,78.10
2018-08-20T20:03:47.464Z,78.30
2018-08-20T20:06:17.353Z,78.50
2018-08-20T20:08:46.970Z,78.60
2018-08-20T20:11:23.531Z,79.00
2018-08-20T20:13:54.043Z,79.50
2018-08-20T20:16:24.818Z,79.50
2018-08-20T20:18:54.594Z,79.70
2018-08-20T20:21:24.008Z,79.80
2018-08-20T20:23:53.559Z,80.00
2018-08-20T20:26:23.090Z,80.10
2018-08-20T20:28:52.797Z,80.30
2018-08-20T20:31:22.298Z,80.40
2018-08-20T20:33:51.632Z,80.60
2018-08-20T20:36:28.196Z,80.90
2018-08-20T20:38:57.855Z,81.10
2018-08-20T20:41:27.351Z,81.30
2018-08-20T20:43:57.478Z,81.40
2018-08-20T20:46:26.959Z,81.70
2018-08-20T20:48:56.216Z,81.80
2018-08-20T20:51:25.613Z,81.90
2018-08-20T20:53:55.040Z,82.20
2018-08-20T20:56:24.397Z,82.20
2018-08-20T20:58:53.969Z,82.60
2018-08-20T21:01:23.328Z,83.00
2018-08-20T21:03:52.747Z,83.50
2018-08-20T21:06:22.123Z,83.30
2018-08-20T21:08:52.179Z,83.20
2018-08-20T21:11:23.276Z,83.30
2018-08-20T21:13:52.635Z,83.90
2018-08-20T21:16:25.480Z,83.90
2018-08-20T21:18:56.859Z,84.20
2018-08-20T21:21:27.132Z,84.10
2018-08-20T21:23:57.645Z,84.50
2018-08-20T21:26:26.987Z,85.30
2018-08-20T21:28:56.790Z,84.40
2018-08-20T21:31:27.332Z,84.40
2018-08-20T21:33:58.532Z,84.60
2018-08-20T21:36:27.806Z,84.40
2018-08-20T21:38:57.177Z,84.50
2018-08-20T21:41:28.202Z,84.70
2018-08-20T21:43:57.594Z,84.60
2018-08-20T21:46:26.980Z,84.30
2018-08-20T21:48:56.325Z,84.20
2018-08-20T21:51:27.532Z,83.80
2018-08-20T21:53:56.836Z,83.80
2018-08-20T21:56:30.516Z,83.30
2018-08-20T21:58:59.962Z,83.30
2018-08-20T22:01:29.286Z,83.50
2018-08-20T22:03:59.598Z,83.60
2018-08-20T22:06:28.938Z,83.80
2018-08-20T22:08:58.191Z,84.00
2018-08-20T22:11:27.515Z,84.00
2018-08-20T22:13:56.796Z,84.00
2018-08-20T22:16:26.349Z,83.90
2018-08-20T22:18:58.200Z,83.20
2018-08-20T22:21:27.611Z,83.80
2018-08-20T22:23:59.045Z,83.90
2018-08-20T22:26:28.636Z,84.00
2018-08-20T22:28:58.541Z,83.90
2018-08-20T22:31:27.941Z,83.60
2018-08-20T22:34:02.245Z,83.50
2018-08-20T22:36:32.545Z,83.60
